map of SHW home
SHW - Airport
Location
City:  Sharurah, Saudi Arabia
Name:Sharurah Airport
ICAO:OESH
IATA:SHW

Details
Type:Airport (Aerodrome, Airfield)
Use:Public/Civil, International (customs port of entry)
Latitude:1728'01"N (17.466944)
Longitude:4707'17"E (47.121389)
Elevation:2382 ft (726 m)
Variation:2.03E (WMM2015 magnetic declination)
0.04 annual change
Runways:1
Longest:11975 × 148 ft (3650 × 45 m), paved

Time
Time Zone:UTC+3
Local Time:

Weather
METAR:OESH 160800Z 22007KT 9999 FEW040 28/07 Q1016 NOSIG

Related Locations
Nearby:
Farthest:REA: 12203 mi / 19638 km
Reao, PF

Find:

   beyond  
but within

Other Information
Maps:
NOTAMs:
Links:
Sources:

  
  • flag of Saudi Arabia
  

Sectional Chart

Flight Planning
at skyvector.com

Satellite Image

Google Maps Satellite view

 

Copyright © 2004-2018 Karl L. Swartz. All rights reserved.
The Great Circle Mapper name and logo are trademarks of the Great Circle Mapper.
All other trademarks mentioned herein belong to their respective owners.
Please see credits for attibutions and further copyright information.

  Follow gcmap on Facebook Follow gcmap on Twitter Follow gcmap on Google+ GCmap on LinkedIn

hCard Microformat

Geo Microformat